Time;durP1;ratioP1;P1;durP2;ratioP2;P2;SDS_P1;SDS_P2;PMS_P1;PMS_P2;Temp;Humidity;BMP_temperature;BMP_pressure;BME280_temperature;BME280_humidity;BME280_pressure;Samples;Min_cycle;Max_cycle;Signal;HPM_P1;HPM_P2
2023/08/06 00:00:19;;;;;;;20.02;15.75;;;14.90;99.90;;;;;;5069374;28;20037;-57
2023/08/06 00:02:45;;;;;;;18.70;14.75;;;14.90;99.90;;;;;;5064708;28;20465;-58
2023/08/06 00:05:11;;;;;;;20.17;14.40;;;14.90;99.90;;;;;;5061505;28;20033;-57
2023/08/06 00:07:36;;;;;;;16.58;14.57;;;14.90;99.90;;;;;;5068217;28;20132;-58
2023/08/06 00:10:02;;;;;;;23.75;16.02;;;14.90;99.90;;;;;;5080355;28;20047;-57
2023/08/06 00:12:28;;;;;;;20.92;15.35;;;14.90;99.90;;;;;;5078311;28;20072;-56
2023/08/06 00:14:54;;;;;;;17.77;14.38;;;14.90;99.90;;;;;;5079465;28;20045;-57
2023/08/06 00:17:19;;;;;;;21.83;15.05;;;14.80;99.90;;;;;;5069189;28;20048;-56
2023/08/06 00:19:45;;;;;;;18.75;14.98;;;14.80;99.90;;;;;;5062189;28;20053;-57
2023/08/06 00:22:11;;;;;;;20.30;13.82;;;14.80;99.90;;;;;;5079921;28;20043;-57
2023/08/06 00:24:37;;;;;;;19.98;14.60;;;14.80;99.90;;;;;;5078658;28;20469;-57
2023/08/06 00:27:03;;;;;;;18.38;14.98;;;14.80;99.90;;;;;;5080429;28;20119;-57
2023/08/06 00:29:29;;;;;;;18.85;14.68;;;14.80;99.90;;;;;;5078454;28;20049;-57
2023/08/06 00:31:54;;;;;;;19.70;14.70;;;14.90;99.90;;;;;;5077739;28;20040;-57
2023/08/06 00:34:20;;;;;;;18.25;14.60;;;14.80;99.90;;;;;;5070487;28;20104;-56
2023/08/06 00:36:46;;;;;;;18.23;14.70;;;14.80;99.90;;;;;;5078862;28;20101;-57
2023/08/06 00:39:12;;;;;;;19.88;14.73;;;14.80;99.90;;;;;;5079604;28;20043;-57
2023/08/06 00:41:37;;;;;;;18.45;15.07;;;14.80;99.90;;;;;;5077315;28;20044;-56
2023/08/06 00:44:03;;;;;;;20.13;15.00;;;14.80;99.90;;;;;;5071774;28;20037;-57
2023/08/06 00:46:30;;;;;;;23.17;14.60;;;14.70;99.90;;;;;;5076236;28;20037;-57
2023/08/06 00:48:56;;;;;;;19.08;14.52;;;14.70;99.90;;;;;;5079077;28;20060;-56
2023/08/06 00:51:22;;;;;;;17.88;14.18;;;14.70;99.90;;;;;;5060075;28;20048;-57
2023/08/06 00:53:50;;;;;;;19.50;13.40;;;14.70;99.90;;;;;;5079142;28;20079;-57
2023/08/06 00:56:16;;;;;;;19.45;14.00;;;14.70;99.90;;;;;;5078684;28;20048;-57
2023/08/06 00:58:42;;;;;;;17.90;13.35;;;14.70;99.90;;;;;;5078481;28;20060;-57
2023/08/06 01:01:08;;;;;;;16.15;13.43;;;14.70;99.90;;;;;;5078492;28;20044;-56
2023/08/06 01:03:33;;;;;;;19.55;14.15;;;14.60;99.90;;;;;;5077515;28;20036;-56
2023/08/06 01:06:00;;;;;;;17.05;13.07;;;14.60;99.90;;;;;;5078773;28;20043;-58
2023/08/06 01:08:32;;;;;;;18.40;13.65;;;14.60;99.90;;;;;;5075142;28;20075;-57
2023/08/06 01:10:58;;;;;;;14.93;12.45;;;14.60;99.90;;;;;;5077597;28;20476;-57
2023/08/06 01:13:46;;;;;;;17.23;13.20;;;14.60;99.90;;;;;;5079277;28;20056;-57
2023/08/06 01:16:17;;;;;;;18.70;13.00;;;14.60;99.90;;;;;;5077718;28;20037;-57
2023/08/06 01:18:46;;;;;;;16.70;13.02;;;14.60;99.90;;;;;;5079629;28;20076;-58
2023/08/06 01:21:13;;;;;;;17.80;13.63;;;14.60;99.90;;;;;;5081358;28;20044;-56
2023/08/06 01:23:39;;;;;;;16.27;13.48;;;14.60;99.90;;;;;;5081887;28;20127;-57
2023/08/06 01:26:10;;;;;;;17.48;13.93;;;14.60;99.90;;;;;;5074920;28;20044;-54
2023/08/06 01:28:39;;;;;;;18.00;14.00;;;14.60;99.90;;;;;;5081146;28;20036;-57
2023/08/06 01:31:10;;;;;;;17.73;13.85;;;14.50;99.90;;;;;;5083046;28;20048;-57
2023/08/06 01:33:41;;;;;;;19.90;13.48;;;14.50;99.90;;;;;;5080659;28;20032;-57
2023/08/06 01:36:07;;;;;;;19.02;14.18;;;14.50;99.90;;;;;;5064870;28;20041;-57
2023/08/06 01:38:33;;;;;;;20.50;13.52;;;14.50;99.90;;;;;;5080485;28;20028;-57
2023/08/06 01:40:58;;;;;;;18.70;13.80;;;14.50;99.90;;;;;;5073305;28;20070;-57
2023/08/06 01:43:24;;;;;;;16.55;12.93;;;14.40;99.90;;;;;;5078066;28;20485;-57
2023/08/06 01:45:50;;;;;;;17.80;12.98;;;14.40;99.90;;;;;;5081606;28;20044;-57
2023/08/06 01:48:15;;;;;;;19.17;13.25;;;14.40;99.90;;;;;;5082022;28;20040;-57
2023/08/06 01:50:41;;;;;;;18.23;13.35;;;14.40;99.90;;;;;;5080304;28;20044;-56
2023/08/06 01:53:06;;;;;;;17.23;13.00;;;14.40;99.90;;;;;;5063140;28;20055;-56
2023/08/06 01:55:32;;;;;;;17.95;13.95;;;14.30;99.90;;;;;;5094206;28;20048;-56
2023/08/06 01:57:58;;;;;;;16.20;13.60;;;14.30;99.90;;;;;;5061921;28;20037;-57
2023/08/06 02:00:23;;;;;;;19.42;14.20;;;14.30;99.90;;;;;;5062952;28;20095;-56
2023/08/06 02:02:49;;;;;;;19.08;12.93;;;14.30;99.90;;;;;;5077504;28;20075;-57
2023/08/06 02:05:15;;;;;;;18.73;13.35;;;14.30;99.90;;;;;;5080903;28;20067;-57
2023/08/06 02:07:40;;;;;;;17.80;13.25;;;14.30;99.90;;;;;;5080841;28;20062;-55
2023/08/06 02:10:07;;;;;;;17.52;13.32;;;14.30;99.90;;;;;;5081518;28;20056;-56
2023/08/06 02:12:32;;;;;;;18.77;13.18;;;14.30;99.90;;;;;;5066814;28;20045;-57
2023/08/06 02:14:58;;;;;;;16.05;12.68;;;14.40;99.90;;;;;;5062069;28;20041;-57
2023/08/06 02:17:23;;;;;;;20.08;13.25;;;14.30;99.90;;;;;;5081675;28;20126;-56
2023/08/06 02:19:49;;;;;;;15.23;13.07;;;14.40;99.90;;;;;;5080226;28;20067;-57
2023/08/06 02:22:15;;;;;;;15.05;12.95;;;14.40;99.90;;;;;;5080564;28;20032;-57
2023/08/06 02:24:41;;;;;;;18.10;12.88;;;14.40;99.90;;;;;;5079312;28;20067;-57
2023/08/06 02:27:06;;;;;;;17.40;13.73;;;14.40;99.90;;;;;;5082490;28;20054;-57
2023/08/06 02:29:32;;;;;;;16.40;12.27;;;14.40;99.90;;;;;;5062215;28;20049;-57
2023/08/06 02:31:58;;;;;;;16.70;12.48;;;14.40;99.90;;;;;;5076688;28;20046;-57
2023/08/06 02:34:24;;;;;;;17.10;13.70;;;14.30;99.90;;;;;;5079652;28;20036;-56
2023/08/06 02:36:50;;;;;;;18.55;13.70;;;14.40;99.90;;;;;;5079883;28;20052;-57
2023/08/06 02:39:15;;;;;;;19.60;14.38;;;14.30;99.90;;;;;;5080480;28;20408;-56
2023/08/06 02:41:41;;;;;;;17.83;13.48;;;14.30;99.90;;;;;;5080111;28;20123;-57
2023/08/06 02:44:06;;;;;;;19.38;14.88;;;14.40;99.90;;;;;;5081927;28;20149;-57
2023/08/06 02:46:32;;;;;;;18.20;14.60;;;14.40;99.90;;;;;;5079719;28;20381;-57
2023/08/06 02:48:58;;;;;;;20.33;14.95;;;14.40;99.90;;;;;;5056897;28;20462;-56
2023/08/06 02:51:23;;;;;;;16.75;14.95;;;14.40;99.90;;;;;;5072635;28;20048;-57
2023/08/06 02:53:49;;;;;;;22.50;15.68;;;14.40;99.90;;;;;;5080900;28;20040;-57
2023/08/06 02:56:15;;;;;;;18.73;15.05;;;14.40;99.90;;;;;;5081546;28;20043;-56
2023/08/06 02:58:41;;;;;;;22.40;15.55;;;14.40;99.90;;;;;;5079233;28;20041;-57
2023/08/06 03:01:07;;;;;;;22.25;15.45;;;14.40;99.90;;;;;;5081664;28;20131;-57
2023/08/06 03:03:33;;;;;;;20.00;15.80;;;14.40;99.90;;;;;;5078902;28;20059;-57
2023/08/06 03:05:59;;;;;;;19.75;15.68;;;14.40;99.90;;;;;;5080944;28;20131;-56
2023/08/06 03:08:25;;;;;;;19.35;14.05;;;14.40;99.90;;;;;;5061025;28;20037;-56
2023/08/06 03:10:51;;;;;;;17.85;14.75;;;14.40;99.90;;;;;;5069416;28;20051;-57
2023/08/06 03:13:18;;;;;;;23.60;14.60;;;14.40;99.90;;;;;;5066140;28;20041;-57
2023/08/06 03:15:51;;;;;;;22.00;14.68;;;14.40;99.90;;;;;;5079544;28;20044;-57
2023/08/06 03:18:16;;;;;;;22.33;15.10;;;14.40;99.90;;;;;;5080042;28;20117;-57
2023/08/06 03:20:42;;;;;;;18.92;15.05;;;14.30;99.90;;;;;;5079519;28;20123;-57
2023/08/06 03:23:08;;;;;;;22.58;15.02;;;14.40;99.90;;;;;;5070806;28;20121;-57
2023/08/06 03:25:36;;;;;;;19.70;14.63;;;14.30;99.90;;;;;;5075499;28;20049;-57
2023/08/06 03:28:02;;;;;;;19.63;14.18;;;14.30;99.90;;;;;;5060400;28;20056;-57
2023/08/06 03:30:28;;;;;;;16.95;13.95;;;14.30;99.90;;;;;;5060859;28;20041;-57
2023/08/06 03:32:53;;;;;;;21.55;13.70;;;14.30;99.90;;;;;;5059519;28;20440;-57
2023/08/06 03:35:19;;;;;;;18.95;14.75;;;14.40;99.90;;;;;;5074940;28;20044;-57
2023/08/06 03:37:45;;;;;;;17.98;14.43;;;14.40;99.90;;;;;;5078631;28;20052;-57
2023/08/06 03:40:10;;;;;;;15.90;14.18;;;14.40;99.90;;;;;;5078352;28;20051;-56
2023/08/06 03:42:36;;;;;;;20.13;14.23;;;14.40;99.90;;;;;;5068369;28;20040;-57
2023/08/06 03:45:02;;;;;;;16.70;14.15;;;14.40;99.90;;;;;;5080098;28;20169;-57
2023/08/06 03:47:28;;;;;;;21.52;13.82;;;14.30;99.90;;;;;;5070182;28;20041;-56
2023/08/06 03:49:54;;;;;;;16.98;14.27;;;14.30;99.90;;;;;;5062927;28;20036;-57
2023/08/06 03:52:19;;;;;;;20.67;14.15;;;14.30;99.90;;;;;;5079138;28;20044;-57
2023/08/06 03:54:45;;;;;;;17.25;14.25;;;14.40;99.90;;;;;;5077322;28;20040;-57
2023/08/06 03:57:11;;;;;;;18.65;14.15;;;14.30;99.90;;;;;;5080005;28;20075;-57
2023/08/06 03:59:36;;;;;;;16.70;13.90;;;14.40;99.90;;;;;;5062741;28;20032;-57
2023/08/06 04:02:02;;;;;;;17.88;13.57;;;14.40;99.90;;;;;;5068632;28;20049;-57
2023/08/06 04:04:28;;;;;;;17.27;13.38;;;14.30;99.90;;;;;;5079362;28;20324;-58
2023/08/06 04:06:54;;;;;;;20.65;14.18;;;14.40;99.90;;;;;;5078953;28;20059;-57
2023/08/06 04:09:19;;;;;;;19.27;13.07;;;14.40;99.90;;;;;;5080216;28;20488;-57
2023/08/06 04:11:45;;;;;;;18.95;13.48;;;14.30;99.90;;;;;;5076378;28;20944;-57
2023/08/06 04:14:11;;;;;;;19.20;13.57;;;14.40;99.90;;;;;;5079036;28;20087;-57
2023/08/06 04:16:36;;;;;;;18.73;13.35;;;14.30;99.90;;;;;;5075348;28;20039;-57
2023/08/06 04:19:02;;;;;;;16.83;13.05;;;14.40;99.90;;;;;;5079813;28;20070;-58
2023/08/06 04:21:28;;;;;;;19.58;13.48;;;14.40;99.90;;;;;;5070108;28;20048;-56
2023/08/06 04:23:53;;;;;;;17.48;13.18;;;14.40;99.90;;;;;;5078930;28;20569;-57
2023/08/06 04:26:19;;;;;;;15.93;13.50;;;14.30;99.90;;;;;;5080268;28;20040;-57
2023/08/06 04:28:45;;;;;;;23.23;12.68;;;14.30;99.90;;;;;;5058976;28;20116;-57
2023/08/06 04:31:10;;;;;;;18.05;12.57;;;14.40;99.90;;;;;;5075103;28;20111;-56
2023/08/06 04:33:36;;;;;;;19.40;13.32;;;14.40;99.90;;;;;;5072380;28;20033;-55
2023/08/06 04:36:02;;;;;;;16.27;11.85;;;14.40;99.90;;;;;;5080238;28;20044;-57
2023/08/06 04:38:27;;;;;;;18.75;13.60;;;14.40;99.90;;;;;;5078232;28;20036;-56
2023/08/06 04:40:53;;;;;;;17.52;13.27;;;14.40;99.90;;;;;;5060712;28;20041;-57
2023/08/06 04:43:19;;;;;;;15.07;12.80;;;14.40;99.90;;;;;;5079353;28;20040;-57
2023/08/06 04:45:49;;;;;;;15.75;13.05;;;14.40;99.90;;;;;;5076287;28;20051;-57
2023/08/06 04:48:15;;;;;;;16.23;12.05;;;14.40;99.90;;;;;;5078405;28;20119;-57
2023/08/06 04:50:49;;;;;;;16.70;11.85;;;14.40;99.90;;;;;;5065062;28;20077;-57
2023/08/06 04:53:15;;;;;;;17.83;12.43;;;14.40;99.90;;;;;;5080002;28;20055;-57
2023/08/06 04:55:41;;;;;;;15.23;12.65;;;14.40;99.90;;;;;;5081499;28;20039;-57
2023/08/06 04:58:08;;;;;;;14.68;12.48;;;14.40;99.90;;;;;;5081606;28;20476;-57
2023/08/06 05:00:34;;;;;;;16.58;12.60;;;14.40;99.90;;;;;;5077279;28;20599;-57
2023/08/06 05:03:01;;;;;;;16.40;12.57;;;14.40;99.90;;;;;;5082495;28;20044;-57
2023/08/06 05:05:27;;;;;;;20.52;12.15;;;14.40;99.90;;;;;;5080922;28;20041;-57
2023/08/06 05:07:54;;;;;;;16.45;13.05;;;14.40;99.90;;;;;;5082236;28;20045;-56
2023/08/06 05:10:20;;;;;;;17.70;12.73;;;14.40;99.90;;;;;;5067135;28;20048;-57
2023/08/06 05:12:45;;;;;;;20.98;13.45;;;14.40;99.90;;;;;;5061826;28;20041;-56
2023/08/06 05:15:11;;;;;;;20.65;13.23;;;14.50;99.90;;;;;;5082525;28;20049;-57
2023/08/06 05:17:37;;;;;;;17.98;13.13;;;14.50;99.90;;;;;;5083453;28;20045;-56
2023/08/06 05:20:03;;;;;;;15.93;12.68;;;14.40;99.90;;;;;;5082160;28;20048;-57
2023/08/06 05:22:29;;;;;;;15.13;12.48;;;14.50;99.90;;;;;;5066238;28;20049;-56
2023/08/06 05:24:54;;;;;;;15.77;12.85;;;14.50;99.90;;;;;;5071366;28;20040;-56
2023/08/06 05:27:20;;;;;;;17.63;12.77;;;14.50;99.90;;;;;;5063540;28;20036;-57
2023/08/06 05:29:46;;;;;;;16.75;13.20;;;14.50;99.90;;;;;;5061143;28;20048;-57
2023/08/06 05:32:11;;;;;;;18.10;13.23;;;14.60;99.90;;;;;;5062779;28;20063;-56
2023/08/06 05:34:37;;;;;;;18.88;12.98;;;14.60;99.90;;;;;;5071938;28;20123;-57
2023/08/06 05:37:03;;;;;;;18.40;13.18;;;14.60;99.90;;;;;;5065695;28;20161;-57
2023/08/06 05:39:29;;;;;;;14.70;12.20;;;14.60;99.90;;;;;;5076007;28;20040;-57
2023/08/06 05:41:55;;;;;;;16.02;12.65;;;14.60;99.90;;;;;;5078483;28;20098;-55
2023/08/06 05:44:21;;;;;;;17.85;13.32;;;14.60;99.90;;;;;;5080675;28;20040;-55
2023/08/06 05:46:47;;;;;;;15.43;12.77;;;14.70;99.90;;;;;;5114046;28;20037;-57
2023/08/06 05:49:13;;;;;;;16.17;12.73;;;14.70;99.90;;;;;;5082230;28;20097;-57
2023/08/06 05:51:39;;;;;;;16.85;11.77;;;14.70;99.90;;;;;;5081146;28;20053;-57
2023/08/06 05:54:05;;;;;;;18.85;13.02;;;14.70;99.90;;;;;;5080773;28;20062;-57
2023/08/06 05:56:30;;;;;;;16.17;12.23;;;14.70;99.90;;;;;;5080318;28;20544;-57
2023/08/06 05:58:56;;;;;;;16.33;12.40;;;14.70;99.90;;;;;;5080489;28;20048;-57
2023/08/06 06:01:22;;;;;;;19.02;13.20;;;14.70;99.90;;;;;;5082896;28;20096;-57
2023/08/06 06:03:48;;;;;;;17.20;11.90;;;14.80;99.90;;;;;;5080917;28;20037;-57
2023/08/06 06:06:13;;;;;;;17.52;12.38;;;14.70;99.90;;;;;;5063620;28;20079;-57
2023/08/06 06:08:39;;;;;;;16.80;12.73;;;14.70;99.90;;;;;;5080217;28;20417;-57
2023/08/06 06:11:04;;;;;;;17.90;12.35;;;14.80;99.90;;;;;;5069806;28;20043;-57
2023/08/06 06:13:30;;;;;;;18.92;12.13;;;14.80;99.90;;;;;;5078110;28;20048;-56
2023/08/06 06:15:56;;;;;;;17.27;12.55;;;14.80;99.90;;;;;;5073742;28;20040;-57
2023/08/06 06:18:22;;;;;;;17.83;13.25;;;14.80;99.90;;;;;;5082644;28;20064;-57
2023/08/06 06:20:48;;;;;;;13.80;12.38;;;14.80;99.90;;;;;;5075245;28;20033;-57
2023/08/06 06:23:14;;;;;;;15.65;12.55;;;14.80;99.90;;;;;;5072612;28;20075;-57
2023/08/06 06:25:46;;;;;;;16.52;12.65;;;14.80;99.90;;;;;;5080454;28;20155;-56
2023/08/06 06:28:12;;;;;;;14.98;12.48;;;14.90;99.90;;;;;;5080464;28;20041;-57
2023/08/06 06:30:37;;;;;;;14.57;12.38;;;14.80;99.90;;;;;;5080041;28;20043;-57
2023/08/06 06:33:03;;;;;;;15.98;13.27;;;14.90;99.90;;;;;;5072178;28;20049;-57
2023/08/06 06:35:29;;;;;;;16.08;13.30;;;14.90;99.90;;;;;;5074306;28;20100;-57
2023/08/06 06:37:55;;;;;;;16.63;13.15;;;14.90;99.90;;;;;;5080577;28;20047;-57
2023/08/06 06:40:21;;;;;;;14.98;13.38;;;14.90;99.90;;;;;;5081584;28;20041;-57
2023/08/06 06:42:46;;;;;;;17.75;13.38;;;14.90;99.90;;;;;;5081028;28;20072;-56
2023/08/06 06:45:12;;;;;;;17.80;13.02;;;14.90;99.90;;;;;;5078059;28;20040;-57
2023/08/06 06:47:37;;;;;;;15.45;13.35;;;14.90;99.90;;;;;;5078384;28;20040;-57
2023/08/06 06:50:04;;;;;;;15.75;12.93;;;14.90;99.90;;;;;;5074160;28;20562;-57
2023/08/06 06:52:29;;;;;;;16.70;13.90;;;14.90;99.90;;;;;;5080289;28;20041;-57
2023/08/06 06:54:55;;;;;;;17.67;13.63;;;15.00;99.90;;;;;;5072541;28;20048;-57
2023/08/06 06:57:21;;;;;;;15.98;14.00;;;14.90;99.90;;;;;;5077241;28;20036;-57
2023/08/06 06:59:46;;;;;;;16.40;14.20;;;15.00;99.90;;;;;;5079199;28;20045;-56
2023/08/06 07:02:12;;;;;;;18.50;14.98;;;15.00;99.90;;;;;;5079726;28;20075;-57
2023/08/06 07:04:38;;;;;;;15.20;13.50;;;15.00;99.90;;;;;;5075228;28;20370;-56
2023/08/06 07:07:04;;;;;;;18.52;13.95;;;15.00;99.90;;;;;;5075608;28;20032;-57
2023/08/06 07:09:29;;;;;;;22.35;14.07;;;15.00;99.90;;;;;;5077168;28;20068;-57
2023/08/06 07:11:56;;;;;;;17.05;14.40;;;15.00;99.90;;;;;;5073627;28;20070;-56
2023/08/06 07:14:23;;;;;;;15.93;14.23;;;15.00;99.90;;;;;;5069284;28;20037;-57
2023/08/06 07:16:48;;;;;;;17.33;15.35;;;15.10;99.90;;;;;;5080075;28;20385;-56
2023/08/06 07:19:14;;;;;;;16.70;15.07;;;15.10;99.90;;;;;;5044710;28;20069;-56
2023/08/06 07:21:40;;;;;;;17.20;15.32;;;15.10;99.90;;;;;;5079583;28;20052;-57
2023/08/06 07:24:05;;;;;;;16.83;14.80;;;15.20;99.90;;;;;;5077999;28;20045;-57
2023/08/06 07:26:31;;;;;;;20.10;15.40;;;15.20;99.90;;;;;;5081266;28;20066;-57
2023/08/06 07:28:57;;;;;;;17.08;15.13;;;15.10;99.90;;;;;;5076782;28;20463;-58
2023/08/06 07:31:22;;;;;;;18.50;16.30;;;15.10;99.90;;;;;;5079380;28;20048;-57
2023/08/06 07:33:48;;;;;;;19.23;16.70;;;15.20;99.90;;;;;;5081912;28;20051;-56
2023/08/06 07:36:15;;;;;;;21.00;17.70;;;15.20;99.90;;;;;;5079402;28;20243;-57
2023/08/06 07:38:41;;;;;;;19.92;17.13;;;15.20;99.90;;;;;;5070149;28;20045;-57
2023/08/06 07:41:07;;;;;;;19.17;17.08;;;15.20;99.90;;;;;;5079421;28;20051;-58
2023/08/06 07:43:32;;;;;;;19.42;16.35;;;15.20;99.90;;;;;;5081912;28;20037;-58
2023/08/06 07:46:02;;;;;;;21.35;18.90;;;15.30;99.90;;;;;;5067922;28;20060;-57
2023/08/06 07:48:28;;;;;;;22.63;17.90;;;15.30;99.90;;;;;;5072780;28;20282;-57
2023/08/06 07:50:57;;;;;;;20.17;18.10;;;15.30;99.90;;;;;;5078117;28;20062;-56
2023/08/06 07:53:26;;;;;;;20.70;17.40;;;15.30;99.90;;;;;;5078582;28;20048;-57
2023/08/06 07:55:53;;;;;;;19.65;16.88;;;15.30;99.90;;;;;;5073474;28;20049;-57
2023/08/06 07:58:20;;;;;;;19.88;17.58;;;15.30;99.90;;;;;;5059453;28;20096;-57
2023/08/06 08:00:46;;;;;;;20.63;17.48;;;15.40;99.90;;;;;;5060776;28;20037;-57
2023/08/06 08:03:16;;;;;;;21.60;18.67;;;15.40;99.90;;;;;;5090581;28;20045;-57
2023/08/06 08:05:42;;;;;;;21.35;18.10;;;15.40;99.90;;;;;;5061173;28;20048;-57
2023/08/06 08:08:08;;;;;;;19.45;17.50;;;15.50;99.90;;;;;;5059622;28;20079;-56
2023/08/06 08:10:34;;;;;;;19.42;17.35;;;15.50;99.90;;;;;;5077829;28;20044;-58
2023/08/06 08:13:04;;;;;;;18.52;16.73;;;15.50;99.90;;;;;;5089035;28;20178;-57
2023/08/06 08:15:31;;;;;;;18.42;15.65;;;15.60;99.90;;;;;;5074222;28;20124;-57
2023/08/06 08:17:57;;;;;;;18.60;16.73;;;15.70;99.90;;;;;;5075801;28;20120;-57
2023/08/06 08:20:23;;;;;;;20.33;17.10;;;15.70;99.90;;;;;;5067865;28;20052;-56
2023/08/06 08:22:49;;;;;;;18.85;16.85;;;15.70;99.90;;;;;;5080662;28;20044;-58
2023/08/06 08:25:22;;;;;;;19.92;16.95;;;15.70;99.90;;;;;;5092658;28;20082;-56
2023/08/06 08:27:47;;;;;;;17.13;15.38;;;15.80;99.90;;;;;;5085814;28;20362;-58
2023/08/06 08:30:13;;;;;;;17.75;16.05;;;15.90;99.90;;;;;;5081163;28;20036;-57
2023/08/06 08:32:39;;;;;;;17.52;15.68;;;16.00;99.90;;;;;;5080828;28;20036;-57
2023/08/06 08:35:04;;;;;;;16.90;15.13;;;16.10;99.90;;;;;;5075884;28;20049;-59
2023/08/06 08:37:30;;;;;;;16.70;14.93;;;16.10;99.90;;;;;;5080869;28;20044;-57
2023/08/06 08:39:56;;;;;;;16.70;14.35;;;16.10;99.90;;;;;;5081870;28;20079;-58
2023/08/06 08:42:22;;;;;;;15.07;13.55;;;16.20;99.90;;;;;;5081575;28;20051;-57
2023/08/06 08:44:48;;;;;;;15.27;13.73;;;16.30;99.90;;;;;;5065890;28;20104;-57
2023/08/06 08:47:16;;;;;;;15.25;13.68;;;16.30;99.90;;;;;;5082487;28;20048;-56
2023/08/06 08:49:43;;;;;;;15.90;14.30;;;16.30;99.90;;;;;;5062111;28;20057;-57
2023/08/06 08:52:11;;;;;;;14.82;12.73;;;16.40;99.90;;;;;;5069901;28;20063;-57
2023/08/06 08:54:38;;;;;;;13.95;12.45;;;16.50;99.90;;;;;;5066377;28;20043;-57
2023/08/06 08:57:04;;;;;;;16.35;12.35;;;16.50;99.90;;;;;;5064334;28;20036;-57
2023/08/06 08:59:35;;;;;;;14.40;12.90;;;16.50;99.90;;;;;;5074168;28;20033;-57
2023/08/06 09:02:01;;;;;;;13.75;12.13;;;16.50;99.90;;;;;;5072090;28;20037;-57
2023/08/06 09:04:31;;;;;;;14.13;12.57;;;16.60;99.90;;;;;;5076432;28;20037;-56
2023/08/06 09:06:59;;;;;;;13.35;12.07;;;16.70;99.90;;;;;;5063475;28;20040;-57
2023/08/06 09:09:28;;;;;;;12.93;11.63;;;16.80;99.90;;;;;;5067184;28;20064;-56
2023/08/06 09:11:59;;;;;;;12.80;11.50;;;16.70;99.90;;;;;;5063568;28;20041;-57
2023/08/06 09:14:26;;;;;;;13.10;11.80;;;16.90;99.90;;;;;;5072357;28;20040;-57
2023/08/06 09:16:51;;;;;;;14.68;11.45;;;16.90;99.90;;;;;;5066372;28;20053;-57
2023/08/06 09:19:17;;;;;;;13.43;11.80;;;17.00;99.90;;;;;;5077473;28;20036;-57
2023/08/06 09:21:43;;;;;;;14.38;11.45;;;17.10;99.90;;;;;;5071854;28;20051;-57
2023/08/06 09:24:10;;;;;;;13.60;12.18;;;17.10;99.90;;;;;;5070571;28;20052;-58
2023/08/06 09:26:38;;;;;;;12.57;11.48;;;17.10;99.90;;;;;;5066356;28;20087;-57
2023/08/06 09:29:08;;;;;;;12.75;11.45;;;17.10;99.90;;;;;;5069055;28;20568;-57
2023/08/06 09:31:47;;;;;;;12.85;11.55;;;17.10;99.90;;;;;;5099315;28;20056;-57
2023/08/06 09:34:18;;;;;;;13.10;11.85;;;17.20;99.90;;;;;;5072828;28;20064;-57
2023/08/06 09:36:52;;;;;;;13.25;12.05;;;17.30;99.90;;;;;;5071827;28;20089;-57
2023/08/06 09:39:20;;;;;;;12.55;11.45;;;17.30;99.90;;;;;;5078321;28;20041;-57
2023/08/06 09:41:49;;;;;;;12.93;11.63;;;17.40;99.90;;;;;;5065854;28;20116;-56
2023/08/06 09:44:19;;;;;;;11.88;10.77;;;17.40;99.90;;;;;;5073868;28;20403;-57
2023/08/06 09:46:49;;;;;;;12.63;11.35;;;17.50;99.90;;;;;;5076432;28;20048;-57
2023/08/06 09:49:16;;;;;;;12.38;10.75;;;17.60;99.90;;;;;;5078545;28;20036;-58
2023/08/06 09:51:42;;;;;;;11.20;10.20;;;17.70;99.90;;;;;;5064773;28;20041;-57
2023/08/06 09:54:12;;;;;;;12.15;11.07;;;17.70;99.90;;;;;;5070986;28;20044;-57
2023/08/06 09:56:38;;;;;;;12.18;10.98;;;17.90;99.90;;;;;;5079615;28;20048;-57
2023/08/06 09:59:07;;;;;;;11.75;10.50;;;17.90;99.90;;;;;;5067101;28;20057;-56
2023/08/06 10:01:34;;;;;;;10.98;9.77;;;18.00;99.90;;;;;;5076494;28;20159;-57
2023/08/06 10:04:05;;;;;;;11.43;9.40;;;17.90;99.90;;;;;;5071784;28;20037;-56
2023/08/06 10:06:34;;;;;;;11.10;10.05;;;18.00;99.90;;;;;;5071430;28;20500;-57
2023/08/06 10:09:00;;;;;;;10.13;9.13;;;18.00;99.90;;;;;;5073305;28;20508;-57
2023/08/06 10:11:28;;;;;;;10.75;9.63;;;18.10;99.90;;;;;;5070161;28;20037;-57
2023/08/06 10:14:08;;;;;;;8.80;7.50;;;18.10;99.90;;;;;;5069007;28;20044;-57
2023/08/06 10:16:36;;;;;;;9.35;8.30;;;18.20;99.90;;;;;;5069744;28;20036;-56
2023/08/06 10:19:05;;;;;;;9.13;8.10;;;18.20;99.90;;;;;;5070410;28;20044;-58
2023/08/06 10:21:31;;;;;;;9.88;8.30;;;18.30;99.90;;;;;;5073145;28;20492;-57
2023/08/06 10:23:57;;;;;;;9.82;8.82;;;18.40;99.90;;;;;;5065294;28;20041;-57
2023/08/06 10:26:28;;;;;;;12.88;8.10;;;18.40;99.90;;;;;;5068130;28;20039;-56
2023/08/06 10:28:54;;;;;;;11.23;7.88;;;18.50;99.90;;;;;;5072293;28;20040;-58
2023/08/06 10:31:20;;;;;;;8.23;7.43;;;18.50;99.90;;;;;;5069469;28;20032;-57
2023/08/06 10:33:46;;;;;;;9.30;8.35;;;18.50;99.90;;;;;;5060212;28;20045;-57
2023/08/06 10:36:13;;;;;;;7.50;6.78;;;18.60;99.90;;;;;;5077022;28;20036;-57
2023/08/06 10:38:50;;;;;;;8.18;7.30;;;18.50;99.90;;;;;;5076871;28;20040;-57
2023/08/06 10:41:29;;;;;;;8.85;6.35;;;18.60;99.90;;;;;;5059945;28;20044;-57
2023/08/06 10:44:11;;;;;;;7.90;7.07;;;18.60;99.90;;;;;;5059396;28;20033;-57
2023/08/06 10:46:38;;;;;;;8.40;7.53;;;18.60;99.90;;;;;;5069927;28;20051;-58
2023/08/06 10:49:04;;;;;;;9.10;7.75;;;18.50;99.90;;;;;;5067288;28;20323;-57
2023/08/06 10:51:30;;;;;;;8.50;7.60;;;18.50;99.90;;;;;;5064517;28;20037;-57
2023/08/06 10:53:57;;;;;;;12.32;7.65;;;18.60;99.90;;;;;;5068723;28;20832;-58
2023/08/06 10:56:26;;;;;;;8.40;7.53;;;18.70;99.90;;;;;;5074616;28;20581;-57
2023/08/06 10:58:56;;;;;;;10.40;7.75;;;18.70;99.90;;;;;;5066896;28;20492;-58
2023/08/06 11:01:23;;;;;;;10.98;6.90;;;18.90;99.90;;;;;;5070442;28;20493;-58
2023/08/06 11:03:50;;;;;;;7.32;6.60;;;19.00;99.90;;;;;;5071929;28;20191;-58
2023/08/06 11:06:20;;;;;;;7.30;6.30;;;19.10;99.90;;;;;;5063000;28;20157;-57
2023/08/06 11:08:51;;;;;;;6.63;5.97;;;19.20;99.90;;;;;;5067287;28;20032;-58
2023/08/06 11:11:18;;;;;;;6.90;6.05;;;19.20;99.90;;;;;;5071052;28;20049;-58
2023/08/06 11:13:46;;;;;;;7.38;6.25;;;19.10;99.90;;;;;;5065927;28;20137;-58
2023/08/06 11:16:14;;;;;;;7.05;5.97;;;19.20;99.90;;;;;;5070108;28;20090;-57
2023/08/06 11:18:41;;;;;;;6.65;5.97;;;19.20;99.90;;;;;;5064328;28;20432;-57
2023/08/06 11:21:07;;;;;;;6.55;5.57;;;19.30;99.90;;;;;;5067968;28;20127;-57
2023/08/06 11:23:34;;;;;;;7.35;6.40;;;19.30;99.90;;;;;;5069213;28;20033;-58
2023/08/06 11:26:00;;;;;;;9.48;6.07;;;19.30;99.90;;;;;;5073191;28;20152;-58
2023/08/06 11:28:27;;;;;;;6.53;5.93;;;19.50;99.90;;;;;;5059971;28;20096;-58
2023/08/06 11:30:55;;;;;;;8.82;5.78;;;19.40;99.90;;;;;;5071428;28;20049;-57
2023/08/06 11:33:31;;;;;;;8.50;5.65;;;19.50;99.90;;;;;;5058536;28;20071;-56
2023/08/06 11:35:57;;;;;;;;;;;19.50;99.90;;;;;;5067308;28;20036;-57
2023/08/06 11:38:30;;;;;;;4.50;3.88;;;19.50;99.90;;;;;;5064594;28;19938;-57
2023/08/06 11:40:56;;;;;;;5.55;3.70;;;19.60;99.90;;;;;;5061672;28;20037;-58
2023/08/06 11:43:22;;;;;;;5.68;3.47;;;19.60;99.90;;;;;;5068853;28;20075;-58
2023/08/06 11:45:50;;;;;;;6.85;4.38;;;19.60;99.90;;;;;;5062804;28;20044;-57
2023/08/06 11:48:16;;;;;;;4.25;3.67;;;19.70;99.90;;;;;;5074835;28;20028;-57
2023/08/06 11:50:42;;;;;;;5.07;3.85;;;19.80;99.90;;;;;;5065480;28;20045;-57
2023/08/06 11:53:12;;;;;;;6.32;3.80;;;19.90;99.90;;;;;;5073793;28;20091;-57
2023/08/06 11:55:38;;;;;;;4.63;4.13;;;19.90;99.90;;;;;;5067075;28;20037;-57
2023/08/06 11:58:04;;;;;;;6.20;3.80;;;19.90;99.90;;;;;;5067976;28;20050;-58
2023/08/06 12:00:30;;;;;;;7.15;4.13;;;19.90;99.90;;;;;;5060803;28;20063;-57
2023/08/06 12:02:56;;;;;;;6.90;3.40;;;19.90;99.90;;;;;;5063933;28;20045;-57
2023/08/06 12:05:24;;;;;;;5.30;3.92;;;20.00;99.90;;;;;;5069004;28;20049;-58
2023/08/06 12:07:57;;;;;;;5.57;3.67;;;20.10;99.90;;;;;;5068349;28;20567;-59
2023/08/06 12:10:25;;;;;;;4.60;3.67;;;20.10;99.90;;;;;;5062021;28;20064;-57
2023/08/06 12:12:51;;;;;;;4.72;3.42;;;20.20;99.90;;;;;;5068756;28;21454;-58
2023/08/06 12:15:17;;;;;;;5.80;3.38;;;20.40;99.90;;;;;;5066232;28;20072;-58
2023/08/06 12:17:43;;;;;;;4.25;3.50;;;20.50;99.90;;;;;;5071226;28;20096;-58
2023/08/06 12:20:10;;;;;;;4.43;3.30;;;20.60;99.90;;;;;;5068245;28;20045;-58
2023/08/06 12:22:38;;;;;;;4.47;3.00;;;20.60;99.90;;;;;;5067279;28;20040;-57
2023/08/06 12:25:08;;;;;;;7.13;3.13;;;20.60;99.90;;;;;;5058676;28;20093;-56
2023/08/06 12:27:37;;;;;;;4.07;2.97;;;20.60;99.90;;;;;;5060187;28;20052;-58